sensor_id;sensor_type;location;lat;lon;timestamp;pressure;altitude;pressure_sealevel;temperature;humidity
11415;BME280;5763;42.714;23.244;2023-03-15T00:00:23;93604.94;;;8.91;43.02
11415;BME280;5763;42.714;23.244;2023-03-15T00:02:50;93597.84;;;8.85;43.39
11415;BME280;5763;42.714;23.244;2023-03-15T00:05:17;93600.66;;;8.76;43.58
11415;BME280;5763;42.714;23.244;2023-03-15T00:07:44;93607.81;;;8.73;43.56
11415;BME280;5763;42.714;23.244;2023-03-15T00:10:10;93599.31;;;8.71;43.61
11415;BME280;5763;42.714;23.244;2023-03-15T00:12:37;93586.91;;;8.70;43.99
11415;BME280;5763;42.714;23.244;2023-03-15T00:15:07;93593.84;;;8.71;43.76
11415;BME280;5763;42.714;23.244;2023-03-15T00:17:36;93591.25;;;8.77;43.78
11415;BME280;5763;42.714;23.244;2023-03-15T00:20:04;93595.31;;;8.81;43.70
11415;BME280;5763;42.714;23.244;2023-03-15T00:22:31;93586.09;;;8.79;43.99
11415;BME280;5763;42.714;23.244;2023-03-15T00:24:59;93579.13;;;8.78;44.08
11415;BME280;5763;42.714;23.244;2023-03-15T00:27:26;93590.50;;;8.76;44.17
11415;BME280;5763;42.714;23.244;2023-03-15T00:29:53;93577.06;;;8.87;43.85
11415;BME280;5763;42.714;23.244;2023-03-15T00:32:20;93572.50;;;8.93;44.01
11415;BME280;5763;42.714;23.244;2023-03-15T00:34:48;93565.13;;;8.85;43.97
11415;BME280;5763;42.714;23.244;2023-03-15T00:37:19;93592.47;;;8.99;44.57
11415;BME280;5763;42.714;23.244;2023-03-15T00:39:46;93567.34;;;8.95;44.11
11415;BME280;5763;42.714;23.244;2023-03-15T00:42:14;93582.84;;;8.89;44.31
11415;BME280;5763;42.714;23.244;2023-03-15T00:44:41;93571.16;;;8.89;44.63
11415;BME280;5763;42.714;23.244;2023-03-15T00:47:08;93568.03;;;8.81;44.68
11415;BME280;5763;42.714;23.244;2023-03-15T00:49:35;93557.84;;;8.91;44.92
11415;BME280;5763;42.714;23.244;2023-03-15T00:52:04;93552.66;;;8.93;44.92
11415;BME280;5763;42.714;23.244;2023-03-15T00:54:31;93519.41;;;8.80;45.51
11415;BME280;5763;42.714;23.244;2023-03-15T00:56:58;93518.09;;;8.90;45.41
11415;BME280;5763;42.714;23.244;2023-03-15T00:59:27;93537.91;;;9.14;44.91
11415;BME280;5763;42.714;23.244;2023-03-15T01:01:59;93554.03;;;9.12;44.97
11415;BME280;5763;42.714;23.244;2023-03-15T01:04:26;93544.34;;;9.25;45.41
11415;BME280;5763;42.714;23.244;2023-03-15T01:06:53;93538.59;;;9.23;45.64
11415;BME280;5763;42.714;23.244;2023-03-15T01:09:21;93546.41;;;9.30;45.25
11415;BME280;5763;42.714;23.244;2023-03-15T01:11:49;93543.03;;;9.35;44.91
11415;BME280;5763;42.714;23.244;2023-03-15T01:14:16;93552.66;;;9.45;44.58
11415;BME280;5763;42.714;23.244;2023-03-15T01:16:44;93546.25;;;9.48;44.71
11415;BME280;5763;42.714;23.244;2023-03-15T01:19:11;93552.16;;;9.47;44.32
11415;BME280;5763;42.714;23.244;2023-03-15T01:21:39;93534.00;;;9.44;44.04
11415;BME280;5763;42.714;23.244;2023-03-15T01:24:06;93521.94;;;9.36;43.44
11415;BME280;5763;42.714;23.244;2023-03-15T01:26:34;93528.34;;;9.47;43.24
11415;BME280;5763;42.714;23.244;2023-03-15T01:29:01;93522.44;;;9.49;43.95
11415;BME280;5763;42.714;23.244;2023-03-15T01:31:29;93495.22;;;9.25;44.07
11415;BME280;5763;42.714;23.244;2023-03-15T01:33:56;93515.94;;;9.46;43.30
11415;BME280;5763;42.714;23.244;2023-03-15T01:36:23;93511.03;;;9.50;43.54
11415;BME280;5763;42.714;23.244;2023-03-15T01:38:50;93492.41;;;9.49;43.56
11415;BME280;5763;42.714;23.244;2023-03-15T01:41:19;93491.94;;;9.50;44.60
11415;BME280;5763;42.714;23.244;2023-03-15T01:43:49;93499.16;;;9.53;44.48
11415;BME280;5763;42.714;23.244;2023-03-15T01:46:27;93506.78;;;9.49;43.73
11415;BME280;5763;42.714;23.244;2023-03-15T01:49:00;93507.66;;;9.55;43.96
11415;BME280;5763;42.714;23.244;2023-03-15T01:51:32;93505.38;;;9.54;44.03
11415;BME280;5763;42.714;23.244;2023-03-15T01:54:05;93491.16;;;9.50;43.65
11415;BME280;5763;42.714;23.244;2023-03-15T01:56:34;93500.94;;;9.42;44.47
11415;BME280;5763;42.714;23.244;2023-03-15T01:59:08;93489.00;;;9.39;44.73
11415;BME280;5763;42.714;23.244;2023-03-15T02:01:39;93479.69;;;9.31;44.98
11415;BME280;5763;42.714;23.244;2023-03-15T02:04:11;93472.63;;;9.10;45.00
11415;BME280;5763;42.714;23.244;2023-03-15T02:06:41;93469.91;;;9.10;44.86
11415;BME280;5763;42.714;23.244;2023-03-15T02:09:13;93477.13;;;9.13;45.68
11415;BME280;5763;42.714;23.244;2023-03-15T02:11:41;93476.59;;;9.09;46.00
11415;BME280;5763;42.714;23.244;2023-03-15T02:14:12;93470.34;;;9.09;45.59
11415;BME280;5763;42.714;23.244;2023-03-15T02:16:39;93463.03;;;9.00;46.40
11415;BME280;5763;42.714;23.244;2023-03-15T02:19:11;93459.06;;;9.01;46.33
11415;BME280;5763;42.714;23.244;2023-03-15T02:21:49;93463.03;;;9.00;46.29
11415;BME280;5763;42.714;23.244;2023-03-15T02:24:28;93463.22;;;8.97;46.41
11415;BME280;5763;42.714;23.244;2023-03-15T02:26:58;93464.44;;;8.96;46.04
11415;BME280;5763;42.714;23.244;2023-03-15T02:29:27;93459.53;;;8.85;45.75
11415;BME280;5763;42.714;23.244;2023-03-15T02:31:56;93455.75;;;8.83;45.82
11415;BME280;5763;42.714;23.244;2023-03-15T02:34:23;93463.00;;;8.86;46.15
11415;BME280;5763;42.714;23.244;2023-03-15T02:36:50;93464.69;;;8.83;45.95
11415;BME280;5763;42.714;23.244;2023-03-15T02:39:19;93456.78;;;8.85;46.11
11415;BME280;5763;42.714;23.244;2023-03-15T02:41:49;93457.94;;;8.93;46.50
11415;BME280;5763;42.714;23.244;2023-03-15T02:44:21;93454.34;;;8.87;46.49
11415;BME280;5763;42.714;23.244;2023-03-15T02:46:51;93450.56;;;8.85;46.35
11415;BME280;5763;42.714;23.244;2023-03-15T02:49:21;93444.38;;;8.84;46.13
11415;BME280;5763;42.714;23.244;2023-03-15T02:51:49;93439.47;;;8.74;45.82
11415;BME280;5763;42.714;23.244;2023-03-15T02:54:16;93448.09;;;8.72;46.52
11415;BME280;5763;42.714;23.244;2023-03-15T02:56:42;93443.31;;;8.67;46.69
11415;BME280;5763;42.714;23.244;2023-03-15T02:59:09;93443.53;;;8.78;46.55
11415;BME280;5763;42.714;23.244;2023-03-15T03:01:37;93432.31;;;8.76;46.34
11415;BME280;5763;42.714;23.244;2023-03-15T03:04:05;93429.31;;;8.74;46.32
11415;BME280;5763;42.714;23.244;2023-03-15T03:06:32;93424.06;;;8.71;45.65
11415;BME280;5763;42.714;23.244;2023-03-15T03:08:59;93410.28;;;8.51;46.01
11415;BME280;5763;42.714;23.244;2023-03-15T03:11:29;93407.97;;;8.58;46.24
11415;BME280;5763;42.714;23.244;2023-03-15T03:13:55;93420.94;;;8.63;46.74
11415;BME280;5763;42.714;23.244;2023-03-15T03:16:22;93423.09;;;8.59;46.78
11415;BME280;5763;42.714;23.244;2023-03-15T03:18:49;93415.19;;;8.61;46.10
11415;BME280;5763;42.714;23.244;2023-03-15T03:21:17;93420.63;;;8.61;45.46
11415;BME280;5763;42.714;23.244;2023-03-15T03:23:44;93420.81;;;8.58;46.56
11415;BME280;5763;42.714;23.244;2023-03-15T03:26:12;93403.81;;;8.63;47.25
11415;BME280;5763;42.714;23.244;2023-03-15T03:28:41;93413.88;;;8.57;47.60
11415;BME280;5763;42.714;23.244;2023-03-15T03:31:15;93417.34;;;8.57;47.53
11415;BME280;5763;42.714;23.244;2023-03-15T03:33:43;93409.25;;;8.48;46.92
11415;BME280;5763;42.714;23.244;2023-03-15T03:36:09;93407.75;;;8.47;46.37
11415;BME280;5763;42.714;23.244;2023-03-15T03:38:39;93404.25;;;8.47;46.50
11415;BME280;5763;42.714;23.244;2023-03-15T03:41:06;93405.03;;;8.47;46.55
11415;BME280;5763;42.714;23.244;2023-03-15T03:43:33;93406.00;;;8.35;45.65
11415;BME280;5763;42.714;23.244;2023-03-15T03:46:00;93404.78;;;8.36;45.91
11415;BME280;5763;42.714;23.244;2023-03-15T03:48:26;93404.41;;;8.29;46.08
11415;BME280;5763;42.714;23.244;2023-03-15T03:50:53;93396.31;;;8.20;46.62
11415;BME280;5763;42.714;23.244;2023-03-15T03:53:20;93393.34;;;8.32;46.84
11415;BME280;5763;42.714;23.244;2023-03-15T03:55:49;93391.53;;;8.29;47.10
11415;BME280;5763;42.714;23.244;2023-03-15T03:58:15;93378.50;;;8.33;47.17
11415;BME280;5763;42.714;23.244;2023-03-15T04:00:42;93369.66;;;8.38;47.44
11415;BME280;5763;42.714;23.244;2023-03-15T04:03:09;93378.31;;;8.51;47.53
11415;BME280;5763;42.714;23.244;2023-03-15T04:05:36;93376.44;;;8.43;47.49
11415;BME280;5763;42.714;23.244;2023-03-15T04:08:04;93381.03;;;8.51;47.38
11415;BME280;5763;42.714;23.244;2023-03-15T04:10:30;93381.59;;;8.41;46.87
11415;BME280;5763;42.714;23.244;2023-03-15T04:13:00;93382.47;;;8.47;46.38
11415;BME280;5763;42.714;23.244;2023-03-15T04:15:27;93378.50;;;8.48;46.56
11415;BME280;5763;42.714;23.244;2023-03-15T04:17:55;93380.97;;;8.46;46.27
11415;BME280;5763;42.714;23.244;2023-03-15T04:20:23;93377.47;;;8.45;46.60
11415;BME280;5763;42.714;23.244;2023-03-15T04:22:50;93379.63;;;8.41;46.77
11415;BME280;5763;42.714;23.244;2023-03-15T04:25:17;93375.13;;;8.38;47.04
11415;BME280;5763;42.714;23.244;2023-03-15T04:27:44;93375.50;;;8.46;46.95
11415;BME280;5763;42.714;23.244;2023-03-15T04:30:24;93373.63;;;8.37;46.58
11415;BME280;5763;42.714;23.244;2023-03-15T04:32:52;93371.16;;;8.39;46.30
11415;BME280;5763;42.714;23.244;2023-03-15T04:35:24;93378.97;;;8.46;46.75
11415;BME280;5763;42.714;23.244;2023-03-15T04:37:51;93364.78;;;8.42;46.21
11415;BME280;5763;42.714;23.244;2023-03-15T04:40:17;93373.16;;;8.53;46.15
11415;BME280;5763;42.714;23.244;2023-03-15T04:42:44;93363.09;;;8.59;46.13
11415;BME280;5763;42.714;23.244;2023-03-15T04:45:11;93349.38;;;8.54;46.26
11415;BME280;5763;42.714;23.244;2023-03-15T04:47:39;93352.19;;;8.45;46.67
11415;BME280;5763;42.714;23.244;2023-03-15T04:50:07;93355.47;;;8.49;46.72
11415;BME280;5763;42.714;23.244;2023-03-15T04:52:34;93357.94;;;8.61;47.04
11415;BME280;5763;42.714;23.244;2023-03-15T04:55:01;93353.69;;;8.60;47.71
11415;BME280;5763;42.714;23.244;2023-03-15T04:57:27;93355.88;;;8.71;48.12
11415;BME280;5763;42.714;23.244;2023-03-15T04:59:54;93348.16;;;8.69;48.30
11415;BME280;5763;42.714;23.244;2023-03-15T05:02:21;93342.16;;;8.65;48.34
11415;BME280;5763;42.714;23.244;2023-03-15T05:04:50;93322.88;;;8.40;48.38
11415;BME280;5763;42.714;23.244;2023-03-15T05:07:16;93365.91;;;8.65;47.79
11415;BME280;5763;42.714;23.244;2023-03-15T05:09:43;93364.78;;;8.71;47.84
11415;BME280;5763;42.714;23.244;2023-03-15T05:12:11;93350.13;;;8.54;48.19
11415;BME280;5763;42.714;23.244;2023-03-15T05:14:38;93358.78;;;8.67;47.91
11415;BME280;5763;42.714;23.244;2023-03-15T05:17:05;93366.69;;;8.80;48.39
11415;BME280;5763;42.714;23.244;2023-03-15T05:19:32;93359.91;;;8.90;48.63
11415;BME280;5763;42.714;23.244;2023-03-15T05:22:01;93365.56;;;8.86;48.69
11415;BME280;5763;42.714;23.244;2023-03-15T05:24:29;93357.47;;;8.77;48.70
11415;BME280;5763;42.714;23.244;2023-03-15T05:26:56;93355.97;;;8.76;48.54
11415;BME280;5763;42.714;23.244;2023-03-15T05:29:22;93353.41;;;8.87;48.60
11415;BME280;5763;42.714;23.244;2023-03-15T05:31:49;93356.72;;;8.91;47.99
11415;BME280;5763;42.714;23.244;2023-03-15T05:34:17;93355.22;;;8.90;47.59
11415;BME280;5763;42.714;23.244;2023-03-15T05:36:44;93352.75;;;8.92;47.56
11415;BME280;5763;42.714;23.244;2023-03-15T05:39:12;93342.97;;;9.00;46.80
11415;BME280;5763;42.714;23.244;2023-03-15T05:41:41;93354.25;;;9.08;46.08
11415;BME280;5763;42.714;23.244;2023-03-15T05:44:08;93345.78;;;9.06;45.20
11415;BME280;5763;42.714;23.244;2023-03-15T05:46:35;93360.34;;;9.17;44.85
11415;BME280;5763;42.714;23.244;2023-03-15T05:49:01;93356.22;;;9.22;45.00
11415;BME280;5763;42.714;23.244;2023-03-15T05:51:28;93332.97;;;9.26;45.20
11415;BME280;5763;42.714;23.244;2023-03-15T05:53:55;93334.47;;;9.27;45.54
11415;BME280;5763;42.714;23.244;2023-03-15T05:56:23;93336.72;;;9.29;44.47
11415;BME280;5763;42.714;23.244;2023-03-15T05:58:50;93329.56;;;9.31;43.80
11415;BME280;5763;42.714;23.244;2023-03-15T06:01:17;93338.94;;;9.45;43.22
11415;BME280;5763;42.714;23.244;2023-03-15T06:03:44;93346.19;;;9.48;42.56
11415;BME280;5763;42.714;23.244;2023-03-15T06:06:11;93340.53;;;9.51;42.18
11415;BME280;5763;42.714;23.244;2023-03-15T06:08:38;93344.75;;;9.52;42.85
11415;BME280;5763;42.714;23.244;2023-03-15T06:11:04;93348.28;;;9.73;42.60
11415;BME280;5763;42.714;23.244;2023-03-15T06:13:32;93342.31;;;9.74;41.97
11415;BME280;5763;42.714;23.244;2023-03-15T06:15:59;93346.38;;;9.79;41.95
11415;BME280;5763;42.714;23.244;2023-03-15T06:18:26;93347.25;;;9.90;41.24
11415;BME280;5763;42.714;23.244;2023-03-15T06:20:53;93351.69;;;9.88;41.06
11415;BME280;5763;42.714;23.244;2023-03-15T06:23:19;93348.41;;;9.84;40.40
11415;BME280;5763;42.714;23.244;2023-03-15T06:25:46;93368.72;;;9.97;39.98
11415;BME280;5763;42.714;23.244;2023-03-15T06:28:14;93352.56;;;9.99;38.85
11415;BME280;5763;42.714;23.244;2023-03-15T06:30:43;93365.66;;;10.10;38.66
11415;BME280;5763;42.714;23.244;2023-03-15T06:33:10;93348.56;;;9.95;38.98
11415;BME280;5763;42.714;23.244;2023-03-15T06:35:38;93340.16;;;9.98;38.95
11415;BME280;5763;42.714;23.244;2023-03-15T06:38:05;93344.06;;;10.12;38.21
11415;BME280;5763;42.714;23.244;2023-03-15T06:40:32;93340.94;;;10.19;37.95
11415;BME280;5763;42.714;23.244;2023-03-15T06:42:58;93330.38;;;10.32;38.58
11415;BME280;5763;42.714;23.244;2023-03-15T06:45:30;93337.69;;;10.40;38.62
11415;BME280;5763;42.714;23.244;2023-03-15T06:47:58;93350.25;;;10.52;38.35
11415;BME280;5763;42.714;23.244;2023-03-15T06:50:25;93344.09;;;10.57;37.55
11415;BME280;5763;42.714;23.244;2023-03-15T06:52:52;93338.50;;;10.72;36.99
11415;BME280;5763;42.714;23.244;2023-03-15T06:55:18;93341.28;;;10.77;37.13
11415;BME280;5763;42.714;23.244;2023-03-15T06:57:45;93342.59;;;10.82;37.22
11415;BME280;5763;42.714;23.244;2023-03-15T07:00:13;93346.31;;;10.59;37.66
11415;BME280;5763;42.714;23.244;2023-03-15T07:02:41;93343.59;;;10.59;37.70
11415;BME280;5763;42.714;23.244;2023-03-15T07:05:10;93346.50;;;10.75;37.72
11415;BME280;5763;42.714;23.244;2023-03-15T07:07:36;93328.34;;;11.03;36.77
11415;BME280;5763;42.714;23.244;2023-03-15T07:10:04;93337.69;;;11.22;36.70
11415;BME280;5763;42.714;23.244;2023-03-15T07:12:31;93333.94;;;11.20;36.42
11415;BME280;5763;42.714;23.244;2023-03-15T07:14:58;93330.63;;;11.10;37.02
11415;BME280;5763;42.714;23.244;2023-03-15T07:17:24;93334.16;;;11.16;36.89
11415;BME280;5763;42.714;23.244;2023-03-15T07:19:51;93326.22;;;11.18;36.04
11415;BME280;5763;42.714;23.244;2023-03-15T07:22:19;93328.50;;;11.25;35.52
11415;BME280;5763;42.714;23.244;2023-03-15T07:24:47;93336.50;;;11.29;36.15
11415;BME280;5763;42.714;23.244;2023-03-15T07:27:14;93338.41;;;11.17;36.20
11415;BME280;5763;42.714;23.244;2023-03-15T07:29:41;93338.16;;;11.15;36.08
11415;BME280;5763;42.714;23.244;2023-03-15T07:32:08;93348.09;;;11.18;36.08
11415;BME280;5763;42.714;23.244;2023-03-15T07:34:34;93335.84;;;11.39;35.85
11415;BME280;5763;42.714;23.244;2023-03-15T07:37:01;93321.22;;;11.53;35.66
11415;BME280;5763;42.714;23.244;2023-03-15T07:39:29;93318.09;;;11.66;35.90
11415;BME280;5763;42.714;23.244;2023-03-15T07:41:57;93325.38;;;11.74;35.58
11415;BME280;5763;42.714;23.244;2023-03-15T07:44:24;93336.00;;;11.61;35.55
11415;BME280;5763;42.714;23.244;2023-03-15T07:46:51;93331.47;;;11.58;36.13
11415;BME280;5763;42.714;23.244;2023-03-15T07:49:19;93327.50;;;11.59;35.74
11415;BME280;5763;42.714;23.244;2023-03-15T07:51:45;93330.66;;;11.47;35.88
11415;BME280;5763;42.714;23.244;2023-03-15T07:54:12;93320.16;;;11.76;36.30
11415;BME280;5763;42.714;23.244;2023-03-15T07:56:41;93306.50;;;11.87;36.17
11415;BME280;5763;42.714;23.244;2023-03-15T07:59:08;93314.53;;;12.02;36.19
11415;BME280;5763;42.714;23.244;2023-03-15T08:01:35;93315.66;;;12.26;35.47
11415;BME280;5763;42.714;23.244;2023-03-15T08:04:02;93305.44;;;12.32;36.10
11415;BME280;5763;42.714;23.244;2023-03-15T08:06:29;93306.44;;;12.40;35.35
11415;BME280;5763;42.714;23.244;2023-03-15T08:08:56;93316.97;;;12.47;34.80
11415;BME280;5763;42.714;23.244;2023-03-15T08:11:22;93302.00;;;12.54;34.91
11415;BME280;5763;42.714;23.244;2023-03-15T08:13:51;93308.25;;;12.60;35.04
11415;BME280;5763;42.714;23.244;2023-03-15T08:16:17;93307.78;;;12.72;35.09
11415;BME280;5763;42.714;23.244;2023-03-15T08:18:44;93305.78;;;12.67;35.58
11415;BME280;5763;42.714;23.244;2023-03-15T08:21:11;93294.06;;;12.83;35.23
11415;BME280;5763;42.714;23.244;2023-03-15T08:23:37;93293.63;;;12.96;34.65
11415;BME280;5763;42.714;23.244;2023-03-15T08:26:04;93297.59;;;13.22;35.01
11415;BME280;5763;42.714;23.244;2023-03-15T08:28:31;93308.78;;;13.68;34.29
11415;BME280;5763;42.714;23.244;2023-03-15T08:30:59;93292.50;;;13.87;33.56
11415;BME280;5763;42.714;23.244;2023-03-15T08:33:26;93293.75;;;13.91;34.20
11415;BME280;5763;42.714;23.244;2023-03-15T08:35:54;93280.91;;;14.21;33.49
11415;BME280;5763;42.714;23.244;2023-03-15T08:38:21;93193.06;;;13.77;32.69
11415;BME280;5763;42.714;23.244;2023-03-15T08:40:48;93277.03;;;14.46;32.83
11415;BME280;5763;42.714;23.244;2023-03-15T08:43:20;93286.66;;;14.23;33.17
11415;BME280;5763;42.714;23.244;2023-03-15T08:45:47;93279.38;;;14.20;33.31
11415;BME280;5763;42.714;23.244;2023-03-15T08:48:16;93281.34;;;14.36;33.49
11415;BME280;5763;42.714;23.244;2023-03-15T08:50:44;93273.66;;;14.64;32.93
11415;BME280;5763;42.714;23.244;2023-03-15T08:53:11;93268.75;;;14.92;32.87
11415;BME280;5763;42.714;23.244;2023-03-15T08:55:38;93271.53;;;14.87;32.13
11415;BME280;5763;42.714;23.244;2023-03-15T08:58:04;93282.63;;;14.70;33.09
11415;BME280;5763;42.714;23.244;2023-03-15T09:00:31;93273.81;;;14.42;33.34
11415;BME280;5763;42.714;23.244;2023-03-15T09:02:58;93277.59;;;14.34;32.75
11415;BME280;5763;42.714;23.244;2023-03-15T09:05:27;93263.84;;;14.28;33.08
11415;BME280;5763;42.714;23.244;2023-03-15T09:07:54;93258.13;;;14.26;33.17
11415;BME280;5763;42.714;23.244;2023-03-15T09:10:20;93273.66;;;14.24;33.63
11415;BME280;5763;42.714;23.244;2023-03-15T09:12:50;93274.84;;;14.34;33.75
11415;BME280;5763;42.714;23.244;2023-03-15T09:15:18;93257.00;;;14.46;33.49
11415;BME280;5763;42.714;23.244;2023-03-15T09:17:47;93265.59;;;14.31;33.17
11415;BME280;5763;42.714;23.244;2023-03-15T09:20:14;93257.41;;;14.09;33.37
11415;BME280;5763;42.714;23.244;2023-03-15T09:22:50;93258.94;;;13.99;33.87
11415;BME280;5763;42.714;23.244;2023-03-15T09:25:17;93258.00;;;13.91;33.46
11415;BME280;5763;42.714;23.244;2023-03-15T09:27:44;93256.56;;;13.68;34.33
11415;BME280;5763;42.714;23.244;2023-03-15T09:30:12;93240.09;;;13.63;34.72
11415;BME280;5763;42.714;23.244;2023-03-15T09:32:39;93255.06;;;13.67;34.60
11415;BME280;5763;42.714;23.244;2023-03-15T09:35:07;93257.31;;;13.63;34.78
11415;BME280;5763;42.714;23.244;2023-03-15T09:37:34;93257.81;;;13.67;34.95
11415;BME280;5763;42.714;23.244;2023-03-15T09:40:03;93258.03;;;13.80;34.82
11415;BME280;5763;42.714;23.244;2023-03-15T09:42:39;93251.69;;;14.02;34.94
11415;BME280;5763;42.714;23.244;2023-03-15T09:45:17;93243.41;;;14.07;35.27
11415;BME280;5763;42.714;23.244;2023-03-15T09:47:54;93238.97;;;13.99;34.69
11415;BME280;5763;42.714;23.244;2023-03-15T09:50:29;93241.22;;;13.95;34.49
11415;BME280;5763;42.714;23.244;2023-03-15T09:53:00;93231.75;;;13.85;34.35
11415;BME280;5763;42.714;23.244;2023-03-15T09:55:30;93233.75;;;13.84;35.21
11415;BME280;5763;42.714;23.244;2023-03-15T09:57:59;93232.06;;;13.70;34.99
11415;BME280;5763;42.714;23.244;2023-03-15T10:00:32;93241.34;;;13.62;34.82
11415;BME280;5763;42.714;23.244;2023-03-15T10:03:02;93246.06;;;13.67;35.06
11415;BME280;5763;42.714;23.244;2023-03-15T10:05:36;93244.81;;;13.68;35.27
11415;BME280;5763;42.714;23.244;2023-03-15T10:08:08;93243.31;;;13.67;34.85
11415;BME280;5763;42.714;23.244;2023-03-15T10:10:39;93273.53;;;13.78;34.79
11415;BME280;5763;42.714;23.244;2023-03-15T10:13:26;93257.06;;;13.72;35.00
11415;BME280;5763;42.714;23.244;2023-03-15T10:16:03;93253.28;;;13.81;34.94
11415;BME280;5763;42.714;23.244;2023-03-15T10:18:53;93255.44;;;14.04;34.71
11415;BME280;5763;42.714;23.244;2023-03-15T10:21:31;93251.41;;;14.11;34.20
11415;BME280;5763;42.714;23.244;2023-03-15T10:24:00;93255.63;;;14.23;34.52
11415;BME280;5763;42.714;23.244;2023-03-15T10:26:34;93242.00;;;14.47;33.71
11415;BME280;5763;42.714;23.244;2023-03-15T10:29:07;93239.25;;;14.82;33.89
11415;BME280;5763;42.714;23.244;2023-03-15T10:31:37;93240.84;;;15.01;33.59
11415;BME280;5763;42.714;23.244;2023-03-15T10:34:07;93237.09;;;14.69;33.65
11415;BME280;5763;42.714;23.244;2023-03-15T10:36:36;93226.25;;;14.47;33.81
11415;BME280;5763;42.714;23.244;2023-03-15T10:39:10;93233.31;;;14.37;34.06
11415;BME280;5763;42.714;23.244;2023-03-15T10:41:40;93232.63;;;14.15;34.98
11415;BME280;5763;42.714;23.244;2023-03-15T10:44:11;93256.41;;;14.12;34.30
11415;BME280;5763;42.714;23.244;2023-03-15T10:46:39;93250.69;;;14.05;34.02
11415;BME280;5763;42.714;23.244;2023-03-15T10:49:10;93239.72;;;13.94;33.89
11415;BME280;5763;42.714;23.244;2023-03-15T10:51:40;93237.53;;;13.81;34.56
11415;BME280;5763;42.714;23.244;2023-03-15T10:54:11;93234.03;;;13.81;34.37
11415;BME280;5763;42.714;23.244;2023-03-15T10:56:45;93239.84;;;13.61;34.49
11415;BME280;5763;42.714;23.244;2023-03-15T10:59:15;93247.84;;;13.59;35.05
11415;BME280;5763;42.714;23.244;2023-03-15T11:01:45;93258.09;;;13.47;35.52
11415;BME280;5763;42.714;23.244;2023-03-15T11:04:15;93251.13;;;13.30;35.40
11415;BME280;5763;42.714;23.244;2023-03-15T11:06:46;93241.19;;;13.10;35.57
11415;BME280;5763;42.714;23.244;2023-03-15T11:09:14;93238.41;;;13.21;34.92
11415;BME280;5763;42.714;23.244;2023-03-15T11:11:58;93238.66;;;13.23;35.78
11415;BME280;5763;42.714;23.244;2023-03-15T11:14:26;93241.94;;;13.22;35.50
11415;BME280;5763;42.714;23.244;2023-03-15T11:16:59;93223.72;;;13.08;36.89
11415;BME280;5763;42.714;23.244;2023-03-15T11:19:28;93228.72;;;12.98;37.35
11415;BME280;5763;42.714;23.244;2023-03-15T11:21:57;93220.97;;;12.86;38.02
11415;BME280;5763;42.714;23.244;2023-03-15T11:24:27;93217.47;;;12.80;37.51
11415;BME280;5763;42.714;23.244;2023-03-15T11:26:56;93234.16;;;12.76;37.36
11415;BME280;5763;42.714;23.244;2023-03-15T11:29:29;93257.13;;;12.62;39.22
11415;BME280;5763;42.714;23.244;2023-03-15T11:31:57;93252.84;;;12.39;40.95
11415;BME280;5763;42.714;23.244;2023-03-15T11:34:34;93252.31;;;12.24;42.47
11415;BME280;5763;42.714;23.244;2023-03-15T11:37:04;93250.25;;;11.97;44.49
11415;BME280;5763;42.714;23.244;2023-03-15T11:39:38;93251.50;;;11.96;44.39
11415;BME280;5763;42.714;23.244;2023-03-15T11:42:13;93229.25;;;11.78;44.34
11415;BME280;5763;42.714;23.244;2023-03-15T11:44:46;93241.22;;;11.86;44.36
11415;BME280;5763;42.714;23.244;2023-03-15T11:47:19;93244.97;;;11.88;45.77
11415;BME280;5763;42.714;23.244;2023-03-15T11:49:50;93227.50;;;11.80;46.46
11415;BME280;5763;42.714;23.244;2023-03-15T11:52:20;93240.97;;;11.89;46.42
11415;BME280;5763;42.714;23.244;2023-03-15T11:54:48;93232.78;;;11.95;45.94
11415;BME280;5763;42.714;23.244;2023-03-15T11:57:40;93233.56;;;12.06;45.77
11415;BME280;5763;42.714;23.244;2023-03-15T12:03:29;93225.59;;;12.08;46.12
11415;BME280;5763;42.714;23.244;2023-03-15T12:06:02;93224.34;;;12.09;46.21
11415;BME280;5763;42.714;23.244;2023-03-15T12:08:44;93218.13;;;12.14;45.48
11415;BME280;5763;42.714;23.244;2023-03-15T12:11:36;93228.84;;;12.18;45.31
11415;BME280;5763;42.714;23.244;2023-03-15T12:14:26;93213.16;;;12.18;45.34
11415;BME280;5763;42.714;23.244;2023-03-15T12:19:41;93202.19;;;12.18;45.61
11415;BME280;5763;42.714;23.244;2023-03-15T12:22:13;93215.91;;;12.24;46.09
11415;BME280;5763;42.714;23.244;2023-03-15T12:24:43;93208.19;;;12.22;45.81
11415;BME280;5763;42.714;23.244;2023-03-15T12:27:15;93213.66;;;12.22;46.30
11415;BME280;5763;42.714;23.244;2023-03-15T12:29:43;93198.69;;;12.12;46.12
11415;BME280;5763;42.714;23.244;2023-03-15T12:32:12;93203.44;;;12.23;45.79
11415;BME280;5763;42.714;23.244;2023-03-15T12:34:46;93207.19;;;12.25;45.59
11415;BME280;5763;42.714;23.244;2023-03-15T12:37:17;93194.25;;;12.31;45.28
11415;BME280;5763;42.714;23.244;2023-03-15T12:39:47;93198.97;;;12.20;43.59
11415;BME280;5763;42.714;23.244;2023-03-15T12:45:37;93199.47;;;12.35;42.65
11415;BME280;5763;42.714;23.244;2023-03-15T12:48:24;93197.22;;;12.33;41.79
11415;BME280;5763;42.714;23.244;2023-03-15T12:51:00;93142.31;;;11.89;42.22
11415;BME280;5763;42.714;23.244;2023-03-15T12:53:41;93195.25;;;12.34;41.74
11415;BME280;5763;42.714;23.244;2023-03-15T12:56:32;93194.25;;;12.31;41.77
11415;BME280;5763;42.714;23.244;2023-03-15T12:59:06;93181.03;;;12.30;41.63
11415;BME280;5763;42.714;23.244;2023-03-15T13:01:36;93181.75;;;12.19;42.30
11415;BME280;5763;42.714;23.244;2023-03-15T13:04:03;93177.47;;;12.02;42.22
11415;BME280;5763;42.714;23.244;2023-03-15T13:09:55;93192.19;;;12.15;42.45
11415;BME280;5763;42.714;23.244;2023-03-15T13:12:29;93176.50;;;12.16;42.41
11415;BME280;5763;42.714;23.244;2023-03-15T13:15:02;93182.00;;;12.16;42.25
11415;BME280;5763;42.714;23.244;2023-03-15T13:17:39;93177.22;;;12.05;41.91
11415;BME280;5763;42.714;23.244;2023-03-15T13:20:31;93174.50;;;12.11;41.82
11415;BME280;5763;42.714;23.244;2023-03-15T13:23:12;93180.22;;;12.07;42.39
11415;BME280;5763;42.714;23.244;2023-03-15T13:25:48;93177.25;;;12.11;41.64
11415;BME280;5763;42.714;23.244;2023-03-15T13:28:21;93179.28;;;12.21;41.48